Ripple Effect — CFK9060 — position and weather

sailwx.info

Track history (hours):
 
Tides and Currents Weather Stations Pressure Air Temp Water Temp Dewpoint Dewpoint Depression Visibility Wind Speed Wind Dir Waves Ship Positions

Ripple Effect

Last reported at 2015-Jun-29 20:23 UTC. Time now 2015-Jun-30 03:25 UTC.
Position N 49°12' W 122°42'.

Length 10 m.

Type: Pleasure craft. MMSI: 316009045.

Date/timePositionNaut miles runAvg speedWind from/ knotsBaromVisibWave heightAir tempDewpointWater temp
2015-Jun-29 20:23N 49°12' W 122°42'1416.9
2015-Jun-29 19:33N 49°12' W 123°04'6 6.3
2015-Jun-29 18:33N 49°18' W 122°59'2 2.2
2015-Jun-29 17:32N 49°19' W 122°56'0 0.0
2015-Jun-29 16:32N 49°19' W 122°56'0 0.0
2015-Jun-29 15:32N 49°19' W 122°56'0 0.0
2015-Jun-29 14:29N 49°19' W 122°56'0 0.0
2015-Jun-29 13:29N 49°19' W 122°56'0 0.0
2015-Jun-29 12:29N 49°19' W 122°56'0 0.0
2015-Jun-29 11:29N 49°19' W 122°56'0 0.0
2015-Jun-29 10:29N 49°19' W 122°56'0 0.0
2015-Jun-29 09:17N 49°19' W 122°56'0 0.0
2015-Jun-29 08:29N 49°19' W 122°56'0 0.0
2015-Jun-29 07:29N 49°19' W 122°56'0 0.0
2015-Jun-29 06:32N 49°19' W 122°56'0 0.0
2015-Jun-29 05:29N 49°19' W 122°56'0 0.0
2015-Jun-29 04:29N 49°19' W 122°56'0 0.0
2015-Jun-29 03:28N 49°19' W 122°56'3 3.1
2015-Jun-29 02:33N 49°21' W 122°54'5 3.5
2015-Jun-29 01:09N 49°26' W 122°52'1 0.6
2015-Jun-28 23:05N 49°25' W 122°52'2 3.6
2015-Jun-28 22:28N 49°22' W 122°52'0 0.2
2015-Jun-28 21:31N 49°23' W 122°52'4 2.7
2015-Jun-28 20:06N 49°20' W 122°56'0 0.6
2015-Jun-28 19:33N 49°20' W 122°57'5 5.3
2015-Jun-28 18:33N 49°17' W 123°04'2 2.3
2015-Jun-28 17:33N 49°17' W 123°07'0 0.0
2015-Jun-28 16:33N 49°17' W 123°07'0 0.0
2015-Jun-28 15:33N 49°17' W 123°07'0 0.0
2015-Jun-28 06:33N 49°17' W 123°07'0 0.0
2015-Jun-28 05:33N 49°17' W 123°07'0 0.0
2015-Jun-28 04:33N 49°17' W 123°07'0 0.0
2015-Jun-28 03:33N 49°17' W 123°07'0 0.0
2015-Jun-28 02:33N 49°17' W 123°07'0 0.0
2015-Jun-28 01:33N 49°17' W 123°07'0 0.0
2015-Jun-28 00:33N 49°17' W 123°07'0 0.0
2015-Jun-27 23:33N 49°17' W 123°07'0 0.0
2015-Jun-27 22:33N 49°17' W 123°07'0 0.3
2015-Jun-27 21:30N 49°17' W 123°08'0 0.4
2015-Jun-27 20:33N 49°17' W 123°07'7 6.2
2015-Jun-27 19:21N 49°19' W 122°56'0 0.0
2015-Jun-27 18:27N 49°19' W 122°56'0 0.0
2015-Jun-27 17:06N 49°19' W 122°56'0 0.0
2015-Jun-27 16:30N 49°19' W 122°56'0 0.0
2015-Jun-27 12:33N 49°19' W 122°56'0 0.0
2015-Jun-27 11:33N 49°19' W 122°56'0 0.0
2015-Jun-27 10:33N 49°19' W 122°56'0 0.0
2015-Jun-27 09:33N 49°19' W 122°56'0 0.0
2015-Jun-27 08:33N 49°19' W 122°56'0 0.0
2015-Jun-27 07:33N 49°19' W 122°56'0 0.0
2015-Jun-27 06:33N 49°19' W 122°56'0 0.0
2015-Jun-27 05:33N 49°19' W 122°56'0 0.0
2015-Jun-27 04:33N 49°19' W 122°56'0 0.0
2015-Jun-27 03:27N 49°19' W 122°56'0 0.0
2015-Jun-27 02:33N 49°19' W 122°56'0 0.0
2015-Jun-27 01:33N 49°19' W 122°56'0 0.0
2015-Jun-27 00:33N 49°19' W 122°56'0 0.0
2015-Jun-26 23:33N 49°19' W 122°56'8 7.7
2015-Jun-26 22:33N 49°16' W 123°07'4 4.5
2015-Jun-26 21:33N 49°18' W 123°14'10 9.8
2015-Jun-26 20:34N 49°08' W 123°14'2 1.7
2015-Jun-26 19:20N 49°07' W 123°11'1214.5
2015-Jun-26 18:28N 49°12' W 122°54'  
Track history (hours):
 
Tides and Currents Weather Stations Pressure Air Temp Water Temp Dewpoint Dewpoint Depression Visibility Wind Speed Wind Dir Waves Ship Positions

Ripple Effect

Last reported at 2015-Jun-29 20:23 UTC. Time now 2015-Jun-30 03:25 UTC.
Position N 49°12' W 122°42'.

Length 10 m.

Type: Pleasure craft. MMSI: 316009045.

Date/timePositionNaut miles runAvg speedWind from/ knotsBaromVisibWave heightAir tempDewpointWater temp
2015-Jun-29 20:23N 49°12' W 122°42'1416.9
2015-Jun-29 19:33N 49°12' W 123°04'6 6.3
2015-Jun-29 18:33N 49°18' W 122°59'2 2.2
2015-Jun-29 17:32N 49°19' W 122°56'0 0.0
2015-Jun-29 16:32N 49°19' W 122°56'0 0.0
2015-Jun-29 15:32N 49°19' W 122°56'0 0.0
2015-Jun-29 14:29N 49°19' W 122°56'0 0.0
2015-Jun-29 13:29N 49°19' W 122°56'0 0.0
2015-Jun-29 12:29N 49°19' W 122°56'0 0.0
2015-Jun-29 11:29N 49°19' W 122°56'0 0.0
2015-Jun-29 10:29N 49°19' W 122°56'0 0.0
2015-Jun-29 09:17N 49°19' W 122°56'0 0.0
2015-Jun-29 08:29N 49°19' W 122°56'0 0.0
2015-Jun-29 07:29N 49°19' W 122°56'0 0.0
2015-Jun-29 06:32N 49°19' W 122°56'0 0.0
2015-Jun-29 05:29N 49°19' W 122°56'0 0.0
2015-Jun-29 04:29N 49°19' W 122°56'0 0.0
2015-Jun-29 03:28N 49°19' W 122°56'3 3.1
2015-Jun-29 02:33N 49°21' W 122°54'5 3.5
2015-Jun-29 01:09N 49°26' W 122°52'1 0.6
2015-Jun-28 23:05N 49°25' W 122°52'2 3.6
2015-Jun-28 22:28N 49°22' W 122°52'0 0.2
2015-Jun-28 21:31N 49°23' W 122°52'4 2.7
2015-Jun-28 20:06N 49°20' W 122°56'0 0.6
2015-Jun-28 19:33N 49°20' W 122°57'5 5.3
2015-Jun-28 18:33N 49°17' W 123°04'2 2.3
2015-Jun-28 17:33N 49°17' W 123°07'0 0.0
2015-Jun-28 16:33N 49°17' W 123°07'0 0.0
2015-Jun-28 15:33N 49°17' W 123°07'0 0.0
2015-Jun-28 06:33N 49°17' W 123°07'0 0.0
2015-Jun-28 05:33N 49°17' W 123°07'0 0.0
2015-Jun-28 04:33N 49°17' W 123°07'0 0.0
2015-Jun-28 03:33N 49°17' W 123°07'0 0.0
2015-Jun-28 02:33N 49°17' W 123°07'0 0.0
2015-Jun-28 01:33N 49°17' W 123°07'0 0.0
2015-Jun-28 00:33N 49°17' W 123°07'0 0.0
2015-Jun-27 23:33N 49°17' W 123°07'0 0.0
2015-Jun-27 22:33N 49°17' W 123°07'0 0.3
2015-Jun-27 21:30N 49°17' W 123°08'0 0.4
2015-Jun-27 20:33N 49°17' W 123°07'7 6.2
2015-Jun-27 19:21N 49°19' W 122°56'0 0.0
2015-Jun-27 18:27N 49°19' W 122°56'0 0.0
2015-Jun-27 17:06N 49°19' W 122°56'0 0.0
2015-Jun-27 16:30N 49°19' W 122°56'0 0.0
2015-Jun-27 12:33N 49°19' W 122°56'0 0.0
2015-Jun-27 11:33N 49°19' W 122°56'0 0.0
2015-Jun-27 10:33N 49°19' W 122°56'0 0.0
2015-Jun-27 09:33N 49°19' W 122°56'0 0.0
2015-Jun-27 08:33N 49°19' W 122°56'0 0.0
2015-Jun-27 07:33N 49°19' W 122°56'0 0.0
2015-Jun-27 06:33N 49°19' W 122°56'0 0.0
2015-Jun-27 05:33N 49°19' W 122°56'0 0.0
2015-Jun-27 04:33N 49°19' W 122°56'0 0.0
2015-Jun-27 03:27N 49°19' W 122°56'0 0.0
2015-Jun-27 02:33N 49°19' W 122°56'0 0.0
2015-Jun-27 01:33N 49°19' W 122°56'0 0.0
2015-Jun-27 00:33N 49°19' W 122°56'0 0.0
2015-Jun-26 23:33N 49°19' W 122°56'8 7.7
2015-Jun-26 22:33N 49°16' W 123°07'4 4.5
2015-Jun-26 21:33N 49°18' W 123°14'10 9.8
2015-Jun-26 20:34N 49°08' W 123°14'2 1.7
2015-Jun-26 19:20N 49°07' W 123°11'1214.5
2015-Jun-26 18:28N 49°12' W 122°54'  

Dump ship's entire track history